Time;durP1;ratioP1;P1;durP2;ratioP2;P2;SDS_P1;SDS_P2;PMS_P1;PMS_P2;Temp;Humidity;BMP_temperature;BMP_pressure;BME280_temperature;BME280_humidity;BME280_pressure;Samples;Min_cycle;Max_cycle;Signal;HPM_P1;HPM_P2
2023/02/19 00:01:42;;;;;;;42.78;22.52;;;;;;;7.99;98.16;99878.28;5093413;28;20040;-92
2023/02/19 00:04:12;;;;;;;43.65;23.63;;;;;;;7.92;98.43;99863.28;5094295;28;20547;-91
2023/02/19 00:06:38;;;;;;;43.63;24.67;;;;;;;7.96;98.42;99873.00;5094132;28;20036;-92
2023/02/19 00:09:06;;;;;;;38.08;21.88;;;;;;;7.84;98.27;99857.97;5095441;28;20040;-91
2023/02/19 00:11:33;;;;;;;41.33;21.65;;;;;;;7.94;98.26;99862.38;5093963;28;20051;-91
2023/02/19 00:14:01;;;;;;;36.72;21.33;;;;;;;8.18;96.61;99880.06;5093891;28;20048;-90
2023/02/19 00:16:29;;;;;;;37.08;21.23;;;;;;;8.09;96.59;99874.78;5093563;28;20044;-92
2023/02/19 00:18:56;;;;;;;42.08;22.23;;;;;;;8.13;96.75;99887.13;5097888;28;20070;-92
2023/02/19 00:21:24;;;;;;;38.60;21.67;;;;;;;8.07;97.19;99881.84;5097937;28;20043;-91
2023/02/19 00:23:50;;;;;;;37.08;21.40;;;;;;;7.89;97.11;99853.53;5097416;28;20123;-92
2023/02/19 00:26:18;;;;;;;37.53;21.67;;;;;;;7.98;97.97;99876.50;5097467;28;20055;-92
2023/02/19 00:28:44;;;;;;;39.08;21.45;;;;;;;7.88;98.33;99851.78;5097825;28;20064;-91
2023/02/19 00:31:17;;;;;;;42.22;21.25;;;;;;;7.97;98.49;99874.75;5096856;28;20040;-92
2023/02/19 00:33:43;;;;;;;37.20;20.20;;;;;;;7.93;98.71;99863.25;5096625;28;20150;-93
2023/02/19 00:36:09;;;;;;;41.30;22.55;;;;;;;7.97;98.87;99864.16;5096475;28;20036;-91
2023/02/19 00:38:36;;;;;;;38.67;21.48;;;;;;;7.91;98.94;99849.13;5096996;28;20047;-90
2023/02/19 00:44:05;;;;;;;36.90;20.75;;;;;;;8.06;98.45;99877.41;5134090;27;20982;-89
2023/02/19 14:49:45;;;;;;;33.60;16.25;;;;;;;11.74;88.32;99435.41;4906312;28;4253481;-92
2023/02/19 14:52:16;;;;;;;38.42;19.35;;;;;;;11.68;89.71;99429.28;5075822;28;20060;-92
2023/02/19 14:54:48;;;;;;;38.17;18.52;;;;;;;11.74;89.74;99446.06;5076539;28;20060;-93
2023/02/19 14:57:18;;;;;;;31.23;17.40;;;;;;;11.92;83.47;99435.03;5076668;28;20037;-93
2023/02/19 14:59:54;;;;;;;33.05;17.10;;;;;;;11.77;83.96;99432.69;5072400;28;20044;-92
2023/02/19 15:02:20;;;;;;;30.83;16.38;;;;;;;11.63;84.58;99433.84;5073865;28;20068;-93
2023/02/19 15:04:47;;;;;;;31.48;16.60;;;;;;;11.64;85.47;99462.22;5076382;28;20071;-94
2023/02/19 15:07:17;;;;;;;29.25;16.52;;;;;;;11.48;85.29;99444.81;5076554;28;20048;-92
2023/02/19 15:09:47;;;;;;;30.98;16.58;;;;;;;11.45;85.58;99450.19;5076857;28;20044;-92
2023/02/19 15:12:19;;;;;;;36.90;19.27;;;;;;;11.41;86.65;99443.19;5075993;28;20036;-91
2023/02/19 15:14:47;;;;;;;31.70;17.00;;;;;;;11.38;87.41;99432.59;5076496;28;20490;-93
2023/02/19 15:17:21;;;;;;;31.02;16.45;;;;;;;11.35;88.15;99416.69;5076526;28;20056;-93
2023/02/19 15:19:51;;;;;;;35.00;17.73;;;;;;;11.41;89.03;99440.53;5076333;28;20066;-94
2023/02/19 15:22:20;;;;;;;44.53;22.60;;;;;;;11.19;89.50;99426.72;5076418;28;20466;-92
2023/02/19 15:24:45;;;;;;;;;;;;;;;11.37;89.22;99449.47;5071817;28;20494;-91
2023/02/19 15:27:17;;;;;;;41.55;20.48;;;;;;;11.25;89.06;99432.81;5075887;28;19920;-93
2023/02/19 15:29:45;;;;;;;74.75;36.95;;;;;;;11.30;89.37;99441.59;5076155;28;20044;-92
2023/02/19 15:32:16;;;;;;;56.38;30.15;;;;;;;11.14;89.74;99417.97;5075796;28;20055;-93
2023/02/19 15:34:54;;;;;;;46.08;23.95;;;;;;;11.19;90.20;99438.28;5076356;28;20466;-93
2023/02/19 15:37:21;;;;;;;39.50;21.95;;;;;;;11.13;89.39;99440.19;5069280;28;20040;-93
2023/02/19 15:39:49;;;;;;;42.08;21.02;;;;;;;11.00;89.95;99431.53;5075605;28;20044;-93
2023/02/19 15:42:19;;;;;;;36.47;19.63;;;;;;;11.14;89.69;99456.09;5075442;28;20064;-92
2023/02/19 15:44:51;;;;;;;33.75;18.45;;;;;;;11.06;90.58;99466.91;5069147;28;20094;-94
2023/02/19 15:47:25;;;;;;;36.85;20.13;;;;;;;10.94;90.40;99453.81;5075860;28;20041;-93
2023/02/19 15:49:59;;;;;;;36.67;18.98;;;;;;;11.01;90.34;99457.22;5079017;28;20484;-93
2023/02/19 15:52:37;;;;;;;39.25;19.45;;;;;;;11.09;90.03;99463.31;5082077;28;20068;-93
2023/02/19 15:55:16;;;;;;;35.63;18.75;;;;;;;11.11;89.53;99448.19;5076697;28;20044;-94
2023/02/19 15:57:47;;;;;;;37.90;19.48;;;;;;;11.04;90.02;99434.13;5076738;28;20507;-92
2023/02/19 16:00:18;;;;;;;36.58;19.20;;;;;;;10.98;91.55;99433.34;5078656;28;20066;-94
2023/02/19 16:02:45;;;;;;;35.78;18.20;;;;;;;11.01;94.03;99459.91;5077099;28;20036;-94
2023/02/19 16:05:22;;;;;;;33.40;18.48;;;;;;;10.85;93.97;99436.22;5073241;28;20036;-95
2023/02/19 16:08:05;;;;;;;43.35;21.80;;;;;;;10.89;95.18;99458.34;5077623;28;20062;-95
2023/02/19 16:10:31;;;;;;;30.85;17.35;;;;;;;10.88;94.59;99457.44;5078292;28;20054;-95
2023/02/19 16:12:59;;;;;;;32.65;18.38;;;;;;;10.78;95.65;99449.63;5075781;28;20044;-93
2023/02/19 16:15:27;;;;;;;35.55;18.20;;;;;;;10.74;96.66;99439.97;5078211;28;20072;-94
2023/02/19 16:17:53;;;;;;;33.10;18.05;;;;;;;10.67;96.65;99432.09;5078169;28;20150;-95
2023/02/19 16:20:24;;;;;;;38.00;18.85;;;;;;;10.70;97.10;99441.81;5078233;28;20127;-96
2023/02/19 16:22:55;;;;;;;34.55;19.60;;;;;;;10.70;97.63;99452.44;5075641;28;20552;-95
2023/02/19 16:25:26;;;;;;;77.22;31.08;;;;;;;10.73;98.19;99468.34;5077869;28;20044;-94
2023/02/19 16:27:53;;;;;;;220.23;56.55;;;;;;;10.69;98.69;99466.63;5067407;28;20078;-94
2023/02/19 16:30:28;;;;;;;217.05;56.25;;;;;;;10.61;98.75;99461.44;5076313;28;20130;-93
2023/02/19 16:33:31;;;;;;;53.25;25.65;;;;;;;10.62;99.09;99462.31;5076200;28;20539;-93
2023/02/19 16:36:18;;;;;;;136.25;45.30;;;;;;;10.62;98.85;99464.97;5073042;28;20119;-94
2023/02/19 16:39:21;;;;;;;57.97;27.00;;;;;;;10.45;99.35;99442.22;5079474;28;20040;-94
2023/02/19 16:42:20;;;;;;;103.88;37.67;;;;;;;10.54;99.96;99466.88;4993971;28;20037;-93
2023/02/19 16:44:47;;;;;;;59.45;30.83;;;;;;;10.45;100.00;99454.59;4996327;28;20042;-93
2023/02/19 16:47:22;;;;;;;57.80;30.10;;;;;;;10.53;99.95;99467.78;4995315;28;20172;-93
2023/02/19 16:49:47;;;;;;;56.30;32.13;;;;;;;10.52;99.91;99466.94;4996839;28;20145;-94
2023/02/19 16:52:15;;;;;;;64.97;36.10;;;;;;;10.40;100.00;99461.78;4994188;28;20069;-93
2023/02/19 16:54:42;;;;;;;167.38;65.25;;;;;;;10.35;100.00;99463.66;4996638;28;20045;-93
2023/02/19 16:57:08;;;;;;;59.75;32.97;;;;;;;10.32;100.00;99456.56;4996792;28;20065;-93
2023/02/19 16:59:33;;;;;;;58.30;30.95;;;;;;;10.26;100.00;99446.03;4993058;28;20132;-95
2023/02/19 17:02:01;;;;;;;81.72;40.92;;;;;;;10.30;100.00;99453.09;4993151;28;20055;-95
2023/02/19 17:04:30;;;;;;;73.00;38.28;;;;;;;10.28;100.00;99457.50;4997747;28;20042;-94
2023/02/19 17:06:57;;;;;;;65.28;36.85;;;;;;;10.20;100.00;99443.44;4995224;28;20050;-93
2023/02/19 17:09:24;;;;;;;74.45;37.20;;;;;;;10.27;100.00;99467.25;5012396;28;20046;-95
2023/02/19 17:11:50;;;;;;;59.53;31.52;;;;;;;10.10;100.00;99440.03;5011784;28;20468;-95
2023/02/19 17:14:16;;;;;;;53.08;28.27;;;;;;;10.12;100.00;99450.66;5076701;28;20040;-94
2023/02/19 17:16:42;;;;;;;75.50;36.40;;;;;;;10.21;100.00;99474.44;5078970;28;20455;-93
2023/02/19 17:19:11;;;;;;;62.47;34.17;;;;;;;10.23;100.00;99477.94;5077899;28;20063;-93
2023/02/19 17:21:36;;;;;;;75.55;39.08;;;;;;;10.11;100.00;99455.09;5066228;28;20515;-94
2023/02/19 17:24:03;;;;;;;55.78;31.52;;;;;;;10.25;100.00;99474.34;5075125;28;20059;-94
2023/02/19 17:26:31;;;;;;;49.97;27.90;;;;;;;10.17;100.00;99472.72;5076991;28;20042;-93
2023/02/19 17:28:57;;;;;;;48.33;26.87;;;;;;;10.20;100.00;99472.69;5072947;28;20047;-93
2023/02/19 17:31:23;;;;;;;43.05;23.02;;;;;;;10.25;100.00;99481.47;5073189;28;20821;-94
2023/02/19 17:33:50;;;;;;;37.30;20.70;;;;;;;10.24;100.00;99479.72;5070243;28;20046;-94
2023/02/19 17:36:18;;;;;;;39.53;20.27;;;;;;;10.31;100.00;99493.84;5076433;28;20502;-94
2023/02/19 17:38:44;;;;;;;44.47;24.90;;;;;;;10.30;100.00;99482.34;5076634;28;20048;-93
2023/02/19 17:41:10;;;;;;;41.90;21.52;;;;;;;10.35;100.00;99491.09;5072545;28;20143;-94
2023/02/19 17:43:37;;;;;;;38.78;21.17;;;;;;;10.36;100.00;99505.28;5076850;28;20071;-92
2023/02/19 17:46:03;;;;;;;40.47;20.77;;;;;;;10.26;100.00;99493.88;5076408;28;20047;-92
2023/02/19 17:48:29;;;;;;;43.42;22.60;;;;;;;10.41;100.00;99516.69;5075735;28;20493;-93
2023/02/19 17:50:55;;;;;;;37.60;20.55;;;;;;;10.46;100.00;99529.03;5076253;28;20040;-93
2023/02/19 17:53:21;;;;;;;37.55;19.08;;;;;;;10.49;100.00;99528.13;5076111;28;20044;-93
2023/02/19 17:55:47;;;;;;;35.97;19.88;;;;;;;10.36;100.00;99506.13;5073903;28;20047;-94
2023/02/19 17:58:13;;;;;;;39.35;20.88;;;;;;;10.50;100.00;99543.19;5075832;28;20040;-94
2023/02/19 18:00:40;;;;;;;38.33;19.52;;;;;;;10.43;100.00;99545.06;5075345;28;20059;-93
2023/02/19 18:03:06;;;;;;;38.35;18.95;;;;;;;10.37;100.00;99526.53;5068381;28;20090;-94
2023/02/19 18:05:32;;;;;;;35.25;18.67;;;;;;;10.40;100.00;99539.75;5075967;28;20439;-92
2023/02/19 18:07:58;;;;;;;38.63;19.33;;;;;;;10.32;100.00;99535.44;5084790;28;20060;-93
2023/02/19 18:10:24;;;;;;;32.72;17.17;;;;;;;10.32;100.00;99524.81;5077671;28;20515;-93
2023/02/19 18:12:51;;;;;;;34.70;18.48;;;;;;;10.26;100.00;99531.97;5076298;28;20090;-92
2023/02/19 18:15:19;;;;;;;31.35;18.20;;;;;;;10.07;100.00;99520.69;5075921;28;20040;-93
2023/02/19 18:17:46;;;;;;;33.58;18.20;;;;;;;10.01;100.00;99520.75;5075438;28;20036;-93
2023/02/19 18:20:13;;;;;;;35.00;18.27;;;;;;;10.03;100.00;99534.91;5075181;28;20059;-92
2023/02/19 18:22:40;;;;;;;34.20;18.60;;;;;;;10.07;100.00;99533.09;5070677;28;20048;-94
2023/02/19 18:25:06;;;;;;;38.90;19.50;;;;;;;10.08;100.00;99529.53;5076222;28;20055;-93
2023/02/19 18:27:32;;;;;;;41.78;21.17;;;;;;;10.04;100.00;99534.03;5079850;28;20570;-93
2023/02/19 18:29:58;;;;;;;40.28;21.42;;;;;;;10.05;100.00;99541.09;5066588;28;20048;-93
2023/02/19 18:32:24;;;;;;;44.55;23.77;;;;;;;9.90;100.00;99512.03;5078452;28;20040;-94
2023/02/19 18:34:54;;;;;;;35.97;20.73;;;;;;;9.96;100.00;99522.59;5075302;28;20032;-92
2023/02/19 18:37:20;;;;;;;41.03;19.80;;;;;;;9.94;100.00;99532.38;5076439;28;20059;-93
2023/02/19 18:39:46;;;;;;;41.40;21.50;;;;;;;9.84;100.00;99517.44;5080664;28;20036;-92
2023/02/19 18:42:12;;;;;;;38.30;20.13;;;;;;;9.69;100.00;99529.09;5079841;28;20101;-94
2023/02/19 18:44:38;;;;;;;43.13;21.45;;;;;;;9.73;100.00;99527.31;5079853;28;20040;-95
2023/02/19 18:47:04;;;;;;;40.75;21.02;;;;;;;9.71;100.00;99527.31;5080720;28;20507;-93
2023/02/19 18:49:31;;;;;;;40.08;21.13;;;;;;;9.74;100.00;99535.28;5078548;28;20056;-92
2023/02/19 18:52:00;;;;;;;38.88;21.27;;;;;;;9.66;100.00;99535.34;5080478;28;20036;-94
2023/02/19 18:54:26;;;;;;;46.63;22.75;;;;;;;9.53;100.00;99538.16;5073789;28;20060;-93
2023/02/19 18:56:53;;;;;;;44.95;24.27;;;;;;;9.59;100.00;99546.94;5074278;28;20131;-92
2023/02/19 18:59:19;;;;;;;44.28;23.95;;;;;;;9.42;100.00;99517.03;5079959;28;20081;-91
2023/02/19 19:01:45;;;;;;;44.03;25.23;;;;;;;9.45;100.00;99527.59;5079263;28;20048;-93
2023/02/19 19:04:11;;;;;;;46.58;23.27;;;;;;;9.51;100.00;99548.78;5075985;28;20093;-92
2023/02/19 19:06:36;;;;;;;44.97;23.17;;;;;;;9.37;100.00;99537.44;5077443;28;20066;-93
2023/02/19 19:09:04;;;;;;;50.13;23.23;;;;;;;9.36;100.00;99544.50;5079969;28;20028;-94
2023/02/19 19:11:31;;;;;;;42.90;22.73;;;;;;;9.31;100.00;99548.13;5079813;28;20036;-93
2023/02/19 19:13:57;;;;;;;43.15;22.85;;;;;;;9.21;100.00;99545.53;5079806;28;20043;-94
2023/02/19 19:16:24;;;;;;;46.50;21.92;;;;;;;9.15;100.00;99544.69;5075937;28;20039;-93
2023/02/19 19:18:50;;;;;;;42.60;22.73;;;;;;;9.23;100.00;99567.63;5080466;28;20044;-92
2023/02/19 19:21:16;;;;;;;44.05;22.35;;;;;;;9.06;100.00;99553.63;5079633;28;20090;-92
2023/02/19 19:23:42;;;;;;;41.78;22.10;;;;;;;9.08;100.00;99558.91;5078191;28;20131;-92
2023/02/19 19:26:11;;;;;;;44.78;24.17;;;;;;;8.88;100.00;99543.19;5078758;28;20036;-92
2023/02/19 19:28:43;;;;;;;45.28;24.48;;;;;;;8.98;100.00;99569.63;5078108;28;20040;-92
2023/02/19 19:31:10;;;;;;;48.67;24.77;;;;;;;8.83;100.00;99549.38;5080501;28;20070;-93
2023/02/19 19:33:36;;;;;;;53.30;25.50;;;;;;;9.02;100.00;99573.09;5080147;28;20481;-93
2023/02/19 19:36:02;;;;;;;48.63;25.27;;;;;;;8.84;100.00;99542.31;5079194;28;20050;-93
2023/02/19 19:38:28;;;;;;;48.55;26.27;;;;;;;8.97;100.00;99569.63;5079692;28;20143;-94
2023/02/19 19:40:54;;;;;;;56.70;28.75;;;;;;;8.95;100.00;99568.75;5080262;28;20067;-95
2023/02/19 19:43:24;;;;;;;48.47;24.98;;;;;;;8.85;100.00;99554.69;5079599;28;20097;-93
2023/02/19 19:45:50;;;;;;;47.13;24.98;;;;;;;8.88;100.00;99564.41;5079475;28;20409;-92
2023/02/19 19:48:16;;;;;;;45.63;25.27;;;;;;;8.91;100.00;99589.09;5080286;28;20059;-95
2023/02/19 19:50:42;;;;;;;46.42;23.92;;;;;;;8.86;100.00;99585.63;5081924;28;20937;-94
2023/02/19 19:53:08;;;;;;;46.38;24.27;;;;;;;8.71;100.00;99538.88;5078977;28;20047;-93
2023/02/19 19:55:34;;;;;;;47.47;24.00;;;;;;;8.89;100.00;99568.78;5078290;28;20044;-93
2023/02/19 19:57:59;;;;;;;52.53;26.40;;;;;;;8.80;100.00;99562.69;5078968;28;20064;-93
2023/02/19 20:00:27;;;;;;;48.03;25.45;;;;;;;8.79;100.00;99576.81;5079755;28;20055;-93
2023/02/19 20:02:52;;;;;;;53.33;26.88;;;;;;;8.93;100.00;99610.31;5075662;28;20036;-93
2023/02/19 20:05:18;;;;;;;50.55;27.38;;;;;;;8.96;100.00;99595.28;5077775;28;20043;-94
2023/02/19 20:07:44;;;;;;;53.85;26.67;;;;;;;8.79;100.00;99576.81;5078357;28;20036;-93
2023/02/19 20:10:11;;;;;;;50.72;25.25;;;;;;;8.88;100.00;99585.63;5077568;28;20143;-93
2023/02/19 20:12:39;;;;;;;59.45;27.08;;;;;;;8.89;100.00;99584.69;5079723;28;20036;-93
2023/02/19 20:15:05;;;;;;;51.50;27.13;;;;;;;8.89;100.00;99579.41;5077063;28;20040;-94
2023/02/19 20:17:33;;;;;;;48.03;24.23;;;;;;;8.80;100.00;99562.69;5076536;28;20476;-92
2023/02/19 20:19:58;;;;;;;45.03;23.65;;;;;;;8.99;100.00;99581.09;5069101;28;20044;-92
2023/02/19 20:22:26;;;;;;;50.05;25.33;;;;;;;8.95;100.00;99576.72;5076001;28;20040;-93
2023/02/19 20:24:53;;;;;;;48.67;25.23;;;;;;;8.91;100.00;99578.50;5075547;28;20043;-91
2023/02/19 20:27:21;;;;;;;48.75;25.55;;;;;;;8.93;100.00;99591.75;5077071;28;20062;-94
2023/02/19 20:29:47;;;;;;;52.40;25.80;;;;;;;8.88;100.00;99575.00;5073052;28;20576;-92
2023/02/19 20:32:19;;;;;;;49.20;25.40;;;;;;;8.85;100.00;99575.91;5077560;28;20055;-91
2023/02/19 20:34:46;;;;;;;54.38;25.80;;;;;;;8.72;100.00;99575.13;5076446;28;20044;-91
2023/02/19 20:37:13;;;;;;;52.03;25.33;;;;;;;8.71;100.00;99575.13;5079832;28;20089;-91
2023/02/19 20:39:39;;;;;;;51.40;25.27;;;;;;;8.71;100.00;99583.94;5074151;28;20651;-94
2023/02/19 20:42:06;;;;;;;59.30;30.58;;;;;;;8.55;100.00;99561.97;5074666;28;20134;-91
2023/02/19 20:44:32;;;;;;;64.82;32.53;;;;;;;8.56;100.00;99582.25;5077711;28;20028;-91
2023/02/19 20:46:59;;;;;;;54.33;28.55;;;;;;;8.56;100.00;99592.00;5075390;28;20810;-94
2023/02/19 20:49:26;;;;;;;50.90;25.63;;;;;;;8.56;100.00;99613.19;5080625;28;20111;-91
2023/02/19 20:51:56;;;;;;;48.65;24.50;;;;;;;8.41;100.00;99577.03;5082813;28;20044;-92
2023/02/19 20:54:25;;;;;;;59.58;26.67;;;;;;;8.53;100.00;99592.03;5082555;28;20050;-94
2023/02/19 20:56:55;;;;;;;49.58;25.42;;;;;;;8.54;100.00;99580.50;5081198;28;20047;-93
2023/02/19 20:59:23;;;;;;;51.53;27.70;;;;;;;8.49;100.00;99563.78;5086237;28;20056;-94
2023/02/19 21:01:49;;;;;;;55.10;27.80;;;;;;;8.61;100.00;99584.91;5075294;28;20045;-91
2023/02/19 21:04:17;;;;;;;54.22;27.40;;;;;;;8.72;100.00;99590.13;5082514;28;20059;-93
2023/02/19 21:06:43;;;;;;;50.15;25.77;;;;;;;8.81;100.00;99574.16;5080743;28;20048;-93
2023/02/19 21:09:10;;;;;;;52.88;25.88;;;;;;;8.96;100.00;99600.59;5080922;28;20036;-93
2023/02/19 21:11:36;;;;;;;52.92;25.48;;;;;;;9.01;100.00;99577.53;5081631;28;20105;-92
2023/02/19 21:14:02;;;;;;;54.13;28.05;;;;;;;9.14;100.00;99594.25;5078330;28;20044;-92
2023/02/19 21:16:32;;;;;;;48.95;26.42;;;;;;;9.19;100.00;99602.16;5079317;28;20047;-92
2023/02/19 21:18:59;;;;;;;48.28;24.88;;;;;;;9.05;100.00;99587.25;5079920;28;20044;-92
2023/02/19 21:21:26;;;;;;;43.38;21.85;;;;;;;9.17;100.00;99607.50;5079712;28;20040;-91
2023/02/19 21:23:52;;;;;;;43.97;22.67;;;;;;;9.10;100.00;99589.84;5077617;28;20431;-92
2023/02/19 21:26:21;;;;;;;47.08;25.08;;;;;;;9.19;100.00;99608.34;5076949;28;20041;-94
2023/02/19 21:28:49;;;;;;;63.77;31.67;;;;;;;9.13;100.00;99595.16;5079609;28;20105;-93
2023/02/19 21:31:15;;;;;;;58.15;30.75;;;;;;;9.17;100.00;99598.63;5078574;28;20074;-93
2023/02/19 21:33:40;;;;;;;54.15;28.00;;;;;;;9.25;100.00;99610.94;5079370;28;20401;-93
2023/02/19 21:36:08;;;;;;;43.35;23.63;;;;;;;9.34;100.00;99601.16;5079060;28;20056;-94
2023/02/19 21:38:33;;;;;;;44.05;23.23;;;;;;;9.35;100.00;99613.56;5079113;28;20043;-93
2023/02/19 21:40:59;;;;;;;42.88;22.60;;;;;;;9.38;100.00;99625.00;5079719;28;20443;-92
2023/02/19 21:43:28;;;;;;;38.88;22.17;;;;;;;9.39;100.00;99629.44;5082353;28;20044;-95
2023/02/19 21:45:55;;;;;;;36.30;20.67;;;;;;;9.39;100.00;99623.22;5091508;28;20044;-92
2023/02/19 21:48:21;;;;;;;41.92;22.60;;;;;;;9.36;100.00;99610.00;5080972;28;20056;-92
2023/02/19 21:50:47;;;;;;;42.42;22.45;;;;;;;9.30;100.00;99602.06;5080232;28;20036;-93
2023/02/19 21:53:13;;;;;;;44.80;22.92;;;;;;;9.24;100.00;99600.38;5081994;28;20043;-93
2023/02/19 21:55:39;;;;;;;36.30;21.20;;;;;;;9.33;100.00;99608.25;5076064;28;20036;-92
2023/02/19 21:58:05;;;;;;;44.28;21.67;;;;;;;9.38;100.00;99603.78;5081918;28;20086;-92
2023/02/19 22:00:33;;;;;;;49.00;22.90;;;;;;;9.48;100.00;99640.84;5079906;28;20040;-94
2023/02/19 22:02:59;;;;;;;39.35;21.27;;;;;;;9.43;100.00;99639.16;5082203;28;20048;-93
2023/02/19 22:05:25;;;;;;;41.35;21.17;;;;;;;9.28;100.00;99619.78;5082048;28;20439;-93
2023/02/19 22:07:52;;;;;;;39.03;21.60;;;;;;;9.37;100.00;99633.00;5082181;28;20461;-92
2023/02/19 22:10:19;;;;;;;39.53;21.92;;;;;;;9.31;100.00;99630.41;5084971;28;20036;-93
2023/02/19 22:12:45;;;;;;;37.92;21.90;;;;;;;9.23;100.00;99612.72;5081891;28;20044;-93
2023/02/19 22:15:11;;;;;;;38.05;20.73;;;;;;;9.34;100.00;99631.22;5081838;28;20040;-92
2023/02/19 22:17:39;;;;;;;38.10;21.45;;;;;;;9.29;100.00;99641.00;5081176;28;20127;-92
2023/02/19 22:20:06;;;;;;;39.50;20.85;;;;;;;9.37;100.00;99638.31;5081203;28;20044;-92
2023/02/19 22:22:32;;;;;;;40.55;21.90;;;;;;;9.38;100.00;99625.00;5079237;28;20040;-93
2023/02/19 22:24:58;;;;;;;41.05;22.95;;;;;;;9.22;100.00;99594.19;5081809;28;20042;-92
2023/02/19 22:27:24;;;;;;;39.10;22.52;;;;;;;9.23;100.00;99609.22;5078653;28;20349;-93
2023/02/19 22:29:50;;;;;;;44.50;22.90;;;;;;;9.21;100.00;99622.47;5083103;28;20063;-94
2023/02/19 22:32:16;;;;;;;39.22;22.33;;;;;;;9.29;100.00;99642.78;5082051;28;20040;-91
2023/02/19 22:34:43;;;;;;;42.67;22.70;;;;;;;9.31;100.00;99641.00;5079248;28;20185;-92
2023/02/19 22:37:09;;;;;;;47.38;24.45;;;;;;;9.41;100.00;99655.94;5079642;28;20129;-93
2023/02/19 22:39:35;;;;;;;39.72;22.92;;;;;;;9.30;100.00;99632.16;5077183;28;20052;-93
2023/02/19 22:42:01;;;;;;;40.42;21.73;;;;;;;9.34;100.00;99633.00;5078892;28;20048;-94
2023/02/19 22:44:27;;;;;;;42.88;22.92;;;;;;;9.37;100.00;99633.88;5077713;28;20036;-94
2023/02/19 22:46:55;;;;;;;43.25;23.23;;;;;;;9.55;100.00;99651.41;5083556;28;20504;-93
2023/02/19 22:49:22;;;;;;;42.22;23.55;;;;;;;9.50;100.00;99647.03;5079166;28;20060;-92
2023/02/19 22:51:53;;;;;;;51.88;27.63;;;;;;;9.50;100.00;99655.91;5076591;28;20078;-94
2023/02/19 22:54:23;;;;;;;53.38;28.67;;;;;;;9.54;100.00;99662.94;5076795;28;20127;-93
2023/02/19 22:56:49;;;;;;;54.70;30.73;;;;;;;9.46;100.00;99656.81;5078590;28;20051;-93
2023/02/19 22:59:15;;;;;;;54.40;29.92;;;;;;;9.46;100.00;99660.34;5070987;28;20494;-93
2023/02/19 23:01:41;;;;;;;52.20;27.88;;;;;;;9.43;100.00;99654.16;5076143;28;20485;-93
2023/02/19 23:04:07;;;;;;;47.60;26.23;;;;;;;9.41;100.00;99651.53;5075257;28;20064;-93
2023/02/19 23:06:34;;;;;;;45.95;26.88;;;;;;;9.40;100.00;99654.19;5075389;28;20063;-94
2023/02/19 23:09:05;;;;;;;49.25;26.77;;;;;;;9.33;100.00;99660.47;5074445;28;20089;-93
2023/02/19 23:11:33;;;;;;;48.63;28.73;;;;;;;9.18;100.00;99641.09;5076455;28;20063;-94
2023/02/19 23:13:59;;;;;;;47.80;27.00;;;;;;;9.16;100.00;99639.34;5078852;28;20044;-93
2023/02/19 23:16:25;;;;;;;47.15;26.23;;;;;;;9.17;100.00;99635.78;5078774;28;20130;-92
2023/02/19 23:18:51;;;;;;;45.15;25.25;;;;;;;9.15;100.00;99625.22;5079407;28;20071;-93
2023/02/19 23:21:18;;;;;;;44.67;23.73;;;;;;;9.31;100.00;99649.84;5079053;28;20059;-92
2023/02/19 23:23:44;;;;;;;43.67;24.17;;;;;;;9.37;100.00;99659.56;5074464;28;20370;-92
2023/02/19 23:26:12;;;;;;;45.80;26.40;;;;;;;9.30;100.00;99648.06;5078830;28;20032;-94
2023/02/19 23:28:39;;;;;;;44.40;24.87;;;;;;;9.36;100.00;99668.38;5078941;28;20057;-93
2023/02/19 23:31:05;;;;;;;41.00;23.92;;;;;;;9.36;100.00;99655.13;5079596;28;20044;-93
2023/02/19 23:33:31;;;;;;;43.80;24.48;;;;;;;9.36;100.00;99657.78;5078121;28;20044;-94
2023/02/19 23:35:57;;;;;;;39.30;22.63;;;;;;;9.32;100.00;99645.41;5078322;28;20041;-94
2023/02/19 23:38:23;;;;;;;37.47;22.73;;;;;;;9.29;100.00;99637.50;5078758;28;20126;-93
2023/02/19 23:40:49;;;;;;;42.17;22.92;;;;;;;9.29;100.00;99637.50;5078914;28;20040;-93
2023/02/19 23:43:16;;;;;;;40.92;24.17;;;;;;;9.15;100.00;99617.25;5078562;28;20044;-93
2023/02/19 23:45:42;;;;;;;45.40;26.20;;;;;;;9.25;100.00;99637.50;5078557;28;20040;-94
2023/02/19 23:48:08;;;;;;;45.20;25.88;;;;;;;9.24;100.00;99642.84;5078779;28;20047;-93
2023/02/19 23:50:34;;;;;;;50.00;27.08;;;;;;;9.23;100.00;99631.31;5078577;28;20059;-93
2023/02/19 23:53:00;;;;;;;54.60;31.25;;;;;;;9.07;100.00;99613.78;5077617;28;20064;-93
2023/02/19 23:55:26;;;;;;;63.47;33.38;;;;;;;9.18;100.00;99622.53;5076773;28;20040;-93
2023/02/19 23:57:52;;;;;;;54.33;32.35;;;;;;;9.13;100.00;99619.03;5078486;28;20039;-93
